Time;durP1;ratioP1;P1;durP2;ratioP2;P2;SDS_P1;SDS_P2;PMS_P1;PMS_P2;Temp;Humidity;BMP_temperature;BMP_pressure;BME280_temperature;BME280_humidity;BME280_pressure;Samples;Min_cycle;Max_cycle;Signal;HPM_P1;HPM_P2
2022/01/19 00:01:21;;;;;;;80.22;33.50;;;;;;;-145.76;100.00;65039.31;4927110;28;20062;-72
2022/01/19 00:03:47;;;;;;;77.22;33.65;;;;;;;-145.76;100.00;65039.31;4926458;28;20058;-72
2022/01/19 00:06:12;;;;;;;73.57;32.50;;;;;;;-145.76;100.00;65039.31;4926988;28;20977;-71
2022/01/19 00:08:38;;;;;;;70.65;30.63;;;;;;;-145.76;100.00;65039.31;4912598;28;20054;-71
2022/01/19 00:11:03;;;;;;;80.25;33.47;;;;;;;-145.76;100.00;65039.31;4925814;28;20031;-71
2022/01/19 00:13:29;;;;;;;74.68;34.53;;;;;;;-145.76;100.00;65039.31;4910785;28;20047;-72
2022/01/19 00:15:55;;;;;;;86.97;33.75;;;;;;;-145.76;100.00;65039.31;4925215;28;20046;-71
2022/01/19 00:18:22;;;;;;;77.07;32.17;;;;;;;-145.76;100.00;65039.31;4926432;28;20066;-71
2022/01/19 00:20:48;;;;;;;86.82;35.85;;;;;;;-145.76;100.00;65039.31;4912092;28;21117;-71
2022/01/19 00:23:18;;;;;;;83.63;33.88;;;;;;;-145.76;100.00;65039.31;4926338;28;20030;-71
2022/01/19 00:25:45;;;;;;;84.22;34.72;;;;;;;-145.76;100.00;65039.31;4912219;28;20081;-71
2022/01/19 00:28:10;;;;;;;83.13;33.63;;;;;;;-145.76;100.00;65039.31;4926470;28;20034;-71
2022/01/19 00:30:36;;;;;;;85.65;34.85;;;;;;;-145.76;100.00;65039.31;4927227;28;20043;-72
2022/01/19 00:33:01;;;;;;;85.95;32.45;;;;;;;-145.76;100.00;65039.31;4911026;28;20495;-72
2022/01/19 00:35:27;;;;;;;91.72;34.05;;;;;;;-145.76;100.00;65039.31;4925644;28;20137;-72
2022/01/19 00:37:52;;;;;;;85.85;31.80;;;;;;;-145.76;100.00;65039.31;4893889;28;20049;-71
2022/01/19 00:40:18;;;;;;;94.93;32.92;;;;;;;-145.76;100.00;65039.31;4925339;28;20038;-72
2022/01/19 00:42:44;;;;;;;92.93;33.33;;;;;;;-145.76;100.00;65039.31;4922817;28;20023;-72
2022/01/19 00:45:10;;;;;;;97.50;33.17;;;;;;;-145.76;100.00;65039.31;4913421;28;20051;-72
2022/01/19 00:47:36;;;;;;;101.95;34.67;;;;;;;-145.76;100.00;65039.31;4925861;28;20061;-71
2022/01/19 00:50:04;;;;;;;98.32;34.47;;;;;;;-145.76;100.00;65039.31;4909294;28;20735;-72
2022/01/19 00:52:30;;;;;;;97.30;34.35;;;;;;;-145.76;100.00;65039.31;4926565;28;20050;-72
2022/01/19 00:54:55;;;;;;;99.18;34.35;;;;;;;-145.76;100.00;65039.31;4921509;28;21200;-72
2022/01/19 00:57:21;;;;;;;94.20;36.90;;;;;;;-145.76;100.00;65039.31;4917995;28;20197;-72
2022/01/19 00:59:46;;;;;;;94.28;35.70;;;;;;;-145.76;100.00;65039.31;4927299;28;21054;-72
2022/01/19 01:02:12;;;;;;;94.88;38.35;;;;;;;-145.76;100.00;65039.31;4909370;28;20473;-72
2022/01/19 01:04:37;;;;;;;97.90;36.63;;;;;;;-145.76;100.00;65039.31;4927415;28;20065;-71
2022/01/19 01:07:03;;;;;;;98.82;37.53;;;;;;;-145.76;100.00;65039.31;4918987;28;21435;-72
2022/01/19 01:09:29;;;;;;;93.60;37.00;;;;;;;-145.76;100.00;65039.31;4900114;28;20105;-72
2022/01/19 01:18:17;;;;;;;93.40;38.03;;;;;;;-145.76;100.00;65039.31;4927319;28;20030;-71
2022/01/19 01:19:58;;;;;;;94.22;35.80;;;;;;;-145.76;100.00;65039.31;4898710;28;20450;-73
2022/01/19 01:22:23;;;;;;;86.45;33.97;;;;;;;-145.76;100.00;65039.31;4924278;28;20031;-70
2022/01/19 01:24:49;;;;;;;100.78;36.67;;;;;;;-145.76;100.00;65039.31;4927042;28;24206;-70
2022/01/19 01:27:14;;;;;;;95.07;36.58;;;;;;;-145.76;100.00;65039.31;4912272;28;20865;-71
2022/01/19 01:29:41;;;;;;;85.57;35.55;;;;;;;-145.76;100.00;65039.31;4926905;28;22475;-71
2022/01/19 01:32:07;;;;;;;88.97;35.50;;;;;;;-145.76;100.00;65039.31;4908437;28;20125;-71
2022/01/19 01:34:33;;;;;;;90.35;34.85;;;;;;;-145.76;100.00;65039.31;4924758;28;20035;-71
2022/01/19 01:36:59;;;;;;;97.03;36.08;;;;;;;-145.76;100.00;65039.31;4924476;28;20038;-72
2022/01/19 01:39:24;;;;;;;90.90;36.78;;;;;;;-145.76;100.00;65039.31;4910476;28;20536;-71
2022/01/19 01:41:50;;;;;;;108.38;39.80;;;;;;;-145.76;100.00;65039.31;4924865;28;22699;-71
2022/01/19 01:44:15;;;;;;;109.13;37.80;;;;;;;-145.76;100.00;65039.31;4908735;28;20268;-72
2022/01/19 01:46:48;;;;;;;87.53;35.03;;;;;;;-145.76;100.00;65039.31;4932373;28;20081;-71
2022/01/19 01:49:26;;;;;;;83.05;32.70;;;;;;;-145.76;100.00;65039.31;4927660;28;20047;-72
2022/01/19 01:54:36;;;;;;;96.18;35.70;;;;;;;-145.76;100.00;65039.31;4926096;28;20508;-71
2022/01/19 01:57:02;;;;;;;105.72;36.97;;;;;;;-145.76;100.00;65039.31;4908408;28;20058;-71
2022/01/19 01:59:27;;;;;;;91.65;37.58;;;;;;;-145.76;100.00;65039.31;4925339;28;20042;-71
2022/01/19 02:01:53;;;;;;;97.63;37.00;;;;;;;-145.76;100.00;65039.31;4918990;28;20115;-71
2022/01/19 02:04:23;;;;;;;99.85;37.83;;;;;;;-145.76;100.00;65039.31;4915342;28;20092;-72
2022/01/19 02:07:22;;;;;;;99.05;36.83;;;;;;;-145.76;100.00;65039.31;4924304;28;20046;-71
2022/01/19 02:09:40;;;;;;;99.15;37.15;;;;;;;-145.76;100.00;65039.31;4911592;28;20146;-71
2022/01/19 02:23:46;;;;;;;100.15;35.72;;;;;;;-145.76;100.00;65039.31;4925242;28;20114;-71
2022/01/19 02:26:18;;;;;;;94.28;35.70;;;;;;;-145.76;100.00;65039.31;4908051;28;21213;-72
2022/01/19 02:29:05;;;;;;;110.35;38.63;;;;;;;-145.76;100.00;65039.31;4924259;28;20030;-72
2022/01/19 02:42:36;;;;;;;109.80;37.53;;;;;;;-145.76;100.00;65039.31;4925293;28;20089;-72
2022/01/19 02:49:55;;;;;;;96.80;37.15;;;;;;;-145.76;100.00;65039.31;4916705;28;20431;-71
2022/01/19 02:52:23;;;;;;;113.28;39.03;;;;;;;-145.76;100.00;65039.31;4914525;28;22643;-71
2022/01/19 02:54:50;;;;;;;95.82;36.63;;;;;;;-145.76;100.00;65039.31;4924239;28;20038;-71
2022/01/19 02:57:16;;;;;;;100.88;36.50;;;;;;;-145.76;100.00;65039.31;4912335;28;20055;-71
2022/01/19 03:10:24;;;;;;;98.10;37.08;;;;;;;-145.76;100.00;65039.31;4918895;28;20149;-72
2022/01/19 03:12:49;;;;;;;111.30;40.90;;;;;;;-145.76;100.00;65039.31;4930535;28;20038;-71
2022/01/19 03:15:15;;;;;;;114.00;39.35;;;;;;;-145.76;100.00;65039.31;4913630;28;20043;-72
2022/01/19 03:17:40;;;;;;;115.28;40.15;;;;;;;-145.76;100.00;65039.31;4929507;28;20039;-72
2022/01/19 03:20:08;;;;;;;111.97;40.65;;;;;;;-145.76;100.00;65039.31;4921944;28;20054;-72
2022/01/19 03:22:58;;;;;;;110.88;42.53;;;;;;;-145.76;100.00;65039.31;4917648;28;20177;-72
2022/01/19 03:25:24;;;;;;;121.38;43.40;;;;;;;-145.76;100.00;65039.31;4930350;28;20050;-72
2022/01/19 03:27:49;;;;;;;126.28;42.53;;;;;;;-145.76;100.00;65039.31;4912149;28;20047;-72
2022/01/19 03:30:17;;;;;;;116.68;41.67;;;;;;;-145.76;100.00;65039.31;4928510;28;20122;-72
2022/01/19 03:32:43;;;;;;;99.28;41.22;;;;;;;-145.76;100.00;65039.31;4912711;28;20051;-72
2022/01/19 03:35:11;;;;;;;116.60;41.65;;;;;;;-145.76;100.00;65039.31;4926861;28;20019;-72
2022/01/19 03:37:37;;;;;;;111.45;41.97;;;;;;;-145.76;100.00;65039.31;4926909;28;20529;-72
2022/01/19 03:40:04;;;;;;;102.55;40.95;;;;;;;-145.76;100.00;65039.31;4913520;28;20093;-72
2022/01/19 03:42:29;;;;;;;107.30;44.70;;;;;;;-145.76;100.00;65039.31;4929243;28;20042;-72
2022/01/19 03:44:55;;;;;;;102.07;41.60;;;;;;;-145.76;100.00;65039.31;4914390;28;21719;-72
2022/01/19 03:47:20;;;;;;;112.38;43.40;;;;;;;-145.76;100.00;65039.31;4928584;28;20276;-72
2022/01/19 03:49:46;;;;;;;97.97;42.78;;;;;;;-145.76;100.00;65039.31;4928094;28;20039;-72
2022/01/19 03:52:11;;;;;;;104.75;42.53;;;;;;;-145.76;100.00;65039.31;4912720;28;20081;-72
2022/01/19 03:54:41;;;;;;;104.72;43.10;;;;;;;-145.76;100.00;65039.31;4929481;28;20169;-71
2022/01/19 03:57:07;;;;;;;112.68;44.22;;;;;;;-145.76;100.00;65039.31;4911441;28;20153;-73
2022/01/19 03:59:32;;;;;;;99.38;41.70;;;;;;;-145.76;100.00;65039.31;4927859;28;20030;-72
2022/01/19 04:01:58;;;;;;;98.80;43.05;;;;;;;-145.76;100.00;65039.31;4925903;28;20117;-74
2022/01/19 04:04:46;;;;;;;106.47;41.70;;;;;;;-145.76;100.00;65039.31;4895493;28;20160;-73
2022/01/19 04:07:13;;;;;;;105.95;42.78;;;;;;;-145.76;100.00;65039.31;4925648;28;20059;-71
2022/01/19 04:09:42;;;;;;;111.68;44.88;;;;;;;-145.76;100.00;65039.31;4924507;28;20047;-72
2022/01/19 04:12:09;;;;;;;101.95;43.17;;;;;;;-145.76;100.00;65039.31;4927200;28;20670;-73
2022/01/19 04:14:36;;;;;;;117.57;45.25;;;;;;;-145.76;100.00;65039.31;4919114;28;20051;-73
2022/01/19 04:17:07;;;;;;;103.47;43.08;;;;;;;-145.76;100.00;65039.31;4916673;28;20071;-73
2022/01/19 04:19:47;;;;;;;112.60;44.28;;;;;;;-145.76;100.00;65039.31;4927303;28;20035;-73
2022/01/19 04:22:18;;;;;;;112.07;45.15;;;;;;;-145.76;100.00;65039.31;4909780;28;20156;-73
2022/01/19 04:24:45;;;;;;;103.03;44.42;;;;;;;-145.76;100.00;65039.31;4925366;28;20042;-73
2022/01/19 04:32:41;;;;;;;113.20;47.38;;;;;;;-145.76;100.00;65039.31;4919611;28;20035;-73
2022/01/19 04:35:09;;;;;;;105.53;44.55;;;;;;;-145.76;100.00;65039.31;4918936;28;21104;-73
2022/01/19 05:02:19;;;;;;;;;;;;;;;-145.76;100.00;65039.31;4925284;28;20098;-73
2022/01/19 05:10:04;;;;;;;103.45;47.38;;;;;;;-145.76;100.00;65039.31;4911005;28;20061;-73
2022/01/19 05:15:14;;;;;;;111.93;47.17;;;;;;;-145.76;100.00;65039.31;4908411;28;23607;-73
2022/01/19 05:17:39;;;;;;;104.68;47.40;;;;;;;-145.76;100.00;65039.31;4927103;28;20038;-73
2022/01/19 05:20:10;;;;;;;114.95;47.47;;;;;;;-145.76;100.00;65039.31;4923191;28;20080;-73
2022/01/19 05:22:36;;;;;;;104.78;46.85;;;;;;;-145.76;100.00;65039.31;4915456;28;20046;-73
2022/01/19 05:25:02;;;;;;;105.07;47.47;;;;;;;-145.76;100.00;65039.31;4924627;28;20093;-73
2022/01/19 05:27:27;;;;;;;86.68;44.63;;;;;;;-145.76;100.00;65039.31;4910632;28;20054;-73
2022/01/19 05:29:53;;;;;;;102.07;47.05;;;;;;;-145.76;100.00;65039.31;4925432;28;20039;-73
2022/01/19 05:32:18;;;;;;;100.88;46.15;;;;;;;-145.76;100.00;65039.31;4937248;28;20042;-73
2022/01/19 05:34:44;;;;;;;92.38;46.15;;;;;;;-145.76;100.00;65039.31;4917211;28;20059;-73
2022/01/19 05:37:09;;;;;;;102.05;47.45;;;;;;;-145.76;100.00;65039.31;4923887;28;20057;-73
2022/01/19 05:39:35;;;;;;;98.10;46.00;;;;;;;-145.76;100.00;65039.31;4911859;28;20078;-73
2022/01/19 05:42:00;;;;;;;105.47;48.42;;;;;;;-145.76;100.00;65039.31;4924697;28;20035;-73
2022/01/19 05:44:26;;;;;;;96.72;46.53;;;;;;;-145.76;100.00;65039.31;4916441;28;20178;-74
2022/01/19 05:46:51;;;;;;;101.15;47.88;;;;;;;-145.76;100.00;65039.31;4928730;28;20186;-72
2022/01/19 05:49:17;;;;;;;104.00;47.00;;;;;;;-145.76;100.00;65039.31;4907056;28;20042;-73
2022/01/19 05:51:42;;;;;;;106.32;46.92;;;;;;;-145.76;100.00;65039.31;4908982;28;20605;-73
2022/01/19 05:54:08;;;;;;;109.10;47.75;;;;;;;-145.76;100.00;65039.31;4926236;28;20067;-73
2022/01/19 05:56:33;;;;;;;101.00;46.78;;;;;;;-145.76;100.00;65039.31;4918807;28;20027;-73
2022/01/19 05:58:59;;;;;;;95.80;45.90;;;;;;;-145.76;100.00;65039.31;4898352;28;20533;-73
2022/01/19 06:01:25;;;;;;;108.78;49.55;;;;;;;-145.76;100.00;65039.31;4924684;28;20061;-73
2022/01/19 06:03:51;;;;;;;96.68;45.42;;;;;;;-145.76;100.00;65039.31;4910245;28;20047;-73
2022/01/19 06:06:17;;;;;;;96.75;46.25;;;;;;;-145.76;100.00;65039.31;4940802;28;20038;-73
2022/01/19 06:08:45;;;;;;;96.40;46.20;;;;;;;-145.76;100.00;65039.31;4917493;28;20050;-73
2022/01/19 06:11:11;;;;;;;96.28;48.40;;;;;;;-145.76;100.00;65039.31;4917540;28;20518;-73
2022/01/19 06:13:37;;;;;;;107.95;47.80;;;;;;;-145.76;100.00;65039.31;4925044;28;20042;-73
2022/01/19 06:16:03;;;;;;;103.20;47.47;;;;;;;-145.76;100.00;65039.31;4908008;28;20058;-73
2022/01/19 06:18:29;;;;;;;103.18;47.63;;;;;;;-145.76;100.00;65039.31;4926386;28;20044;-73
2022/01/19 06:20:55;;;;;;;101.80;48.67;;;;;;;-145.76;100.00;65039.31;4920900;28;20047;-73
2022/01/19 06:23:20;;;;;;;107.50;47.88;;;;;;;-145.76;100.00;65039.31;4916679;28;20047;-73
2022/01/19 06:25:46;;;;;;;94.10;46.38;;;;;;;-145.76;100.00;65039.31;4925008;28;20074;-73
2022/01/19 06:28:11;;;;;;;96.80;45.30;;;;;;;-145.76;100.00;65039.31;4908566;28;20051;-73
2022/01/19 06:30:37;;;;;;;105.40;47.25;;;;;;;-145.76;100.00;65039.31;4924284;28;20066;-73
2022/01/19 06:33:03;;;;;;;101.45;47.95;;;;;;;-145.76;100.00;65039.31;4915413;28;20047;-73
2022/01/19 06:35:28;;;;;;;93.18;46.30;;;;;;;-145.76;100.00;65039.31;4913085;28;20062;-73
2022/01/19 06:37:53;;;;;;;99.45;47.83;;;;;;;-145.76;100.00;65039.31;4922887;28;20093;-71
2022/01/19 06:40:20;;;;;;;94.50;46.70;;;;;;;-145.76;100.00;65039.31;4908835;28;20050;-71
2022/01/19 06:42:46;;;;;;;108.25;47.80;;;;;;;-145.76;100.00;65039.31;4925810;28;20101;-71
2022/01/19 06:45:12;;;;;;;98.30;46.33;;;;;;;-145.76;100.00;65039.31;4918954;28;20054;-72
2022/01/19 06:47:38;;;;;;;96.65;47.50;;;;;;;-145.76;100.00;65039.31;4913447;28;20051;-72
2022/01/19 06:50:05;;;;;;;97.47;47.25;;;;;;;-145.76;100.00;65039.31;4925866;28;20592;-71
2022/01/19 06:52:31;;;;;;;93.20;48.65;;;;;;;-145.76;100.00;65039.31;4908380;28;20055;-71
2022/01/19 06:54:57;;;;;;;89.20;44.90;;;;;;;-145.76;100.00;65039.31;4925858;28;20031;-71
2022/01/19 06:57:22;;;;;;;94.70;46.45;;;;;;;-145.76;100.00;65039.31;4918443;28;20055;-71
2022/01/19 06:59:51;;;;;;;97.88;46.78;;;;;;;-145.76;100.00;65039.31;4915349;28;20102;-71
2022/01/19 07:02:17;;;;;;;92.00;46.55;;;;;;;-145.76;100.00;65039.31;4924397;28;20628;-71
2022/01/19 07:04:48;;;;;;;95.63;47.53;;;;;;;-145.76;100.00;65039.31;4924564;28;20264;-71
2022/01/19 07:07:14;;;;;;;91.53;45.90;;;;;;;-145.76;100.00;65039.31;4925168;28;20054;-71
2022/01/19 07:09:39;;;;;;;103.22;48.17;;;;;;;-145.76;100.00;65039.31;4908414;28;20047;-71
2022/01/19 07:12:05;;;;;;;96.20;46.85;;;;;;;-145.76;100.00;65039.31;4922947;28;20043;-71
2022/01/19 07:14:30;;;;;;;90.15;46.17;;;;;;;-145.76;100.00;65039.31;4921853;28;20035;-71
2022/01/19 07:16:56;;;;;;;98.57;48.90;;;;;;;-145.76;100.00;65039.31;4908177;28;21245;-71
2022/01/19 07:19:21;;;;;;;96.43;47.50;;;;;;;-145.76;100.00;65039.31;4923260;28;20062;-72
2022/01/19 07:21:47;;;;;;;91.35;46.25;;;;;;;-145.76;100.00;65039.31;4911229;28;22734;-71
2022/01/19 07:24:14;;;;;;;94.53;47.35;;;;;;;-145.76;100.00;65039.31;4923358;28;20045;-72
2022/01/19 07:26:40;;;;;;;93.28;45.72;;;;;;;-145.76;100.00;65039.31;4922259;28;20054;-72
2022/01/19 07:29:06;;;;;;;98.93;47.03;;;;;;;-145.76;100.00;65039.31;4892950;28;20400;-70
2022/01/19 07:31:31;;;;;;;95.60;47.20;;;;;;;-145.76;100.00;65039.31;4925275;28;23281;-72
2022/01/19 07:33:57;;;;;;;97.63;47.42;;;;;;;-145.76;100.00;65039.31;4907825;28;20129;-71
2022/01/19 07:36:22;;;;;;;99.05;50.53;;;;;;;-145.76;100.00;65039.31;4924075;28;23675;-71
2022/01/19 07:38:47;;;;;;;99.80;48.97;;;;;;;-145.76;100.00;65039.31;4925504;28;20035;-72
2022/01/19 07:41:13;;;;;;;88.80;45.22;;;;;;;-145.76;100.00;65039.31;4911243;28;22421;-72
2022/01/19 07:43:38;;;;;;;94.57;49.10;;;;;;;-145.76;100.00;65039.31;4927080;28;20038;-72
2022/01/19 07:46:04;;;;;;;99.82;48.08;;;;;;;-145.76;100.00;65039.31;4911630;28;20539;-71
2022/01/19 07:48:29;;;;;;;95.68;45.63;;;;;;;-145.76;100.00;65039.31;4928254;28;25184;-72
2022/01/19 07:50:55;;;;;;;89.95;45.35;;;;;;;-145.76;100.00;65039.31;4926590;28;20096;-72
2022/01/19 07:53:20;;;;;;;97.18;48.20;;;;;;;-145.76;100.00;65039.31;4912828;28;20058;-72
2022/01/19 07:55:47;;;;;;;94.45;46.38;;;;;;;-145.76;100.00;65039.31;4925366;28;20034;-72
2022/01/19 07:58:12;;;;;;;93.05;47.10;;;;;;;-145.76;100.00;65039.31;4908934;28;20059;-72
2022/01/19 08:00:38;;;;;;;91.90;47.65;;;;;;;-145.76;100.00;65039.31;4925639;28;20217;-72
2022/01/19 08:03:04;;;;;;;97.45;46.60;;;;;;;-145.76;100.00;65039.31;4920094;28;20042;-72
2022/01/19 08:05:31;;;;;;;93.40;47.13;;;;;;;-145.76;100.00;65039.31;4912330;28;20082;-72
2022/01/19 08:07:56;;;;;;;96.15;46.53;;;;;;;-145.76;100.00;65039.31;4925530;28;20177;-72
2022/01/19 08:10:22;;;;;;;100.07;47.53;;;;;;;-145.76;100.00;65039.31;4906010;28;20128;-72
2022/01/19 08:12:50;;;;;;;94.75;46.75;;;;;;;-145.76;100.00;65039.31;4922758;28;20041;-72
2022/01/19 08:15:16;;;;;;;96.93;47.53;;;;;;;-145.76;100.00;65039.31;4919107;28;20034;-71
2022/01/19 08:17:41;;;;;;;97.63;47.22;;;;;;;-145.76;100.00;65039.31;4917254;28;20141;-71
2022/01/19 08:20:07;;;;;;;93.40;46.03;;;;;;;-145.76;100.00;65039.31;4925387;28;22650;-71
2022/01/19 08:22:33;;;;;;;97.30;46.50;;;;;;;-145.76;100.00;65039.31;4910318;28;20059;-72
2022/01/19 08:24:58;;;;;;;109.30;47.33;;;;;;;-145.76;100.00;65039.31;4924425;28;20034;-72
2022/01/19 08:27:24;;;;;;;97.50;47.63;;;;;;;-145.76;100.00;65039.31;4919113;28;20034;-72
2022/01/19 08:29:49;;;;;;;97.63;46.67;;;;;;;-145.76;100.00;65039.31;4916555;28;20114;-72
2022/01/19 08:32:14;;;;;;;95.95;46.33;;;;;;;-145.76;100.00;65039.31;4924274;28;20057;-72
2022/01/19 08:34:40;;;;;;;91.15;45.53;;;;;;;-145.76;100.00;65039.31;4911310;28;20121;-72
2022/01/19 08:37:06;;;;;;;97.80;47.00;;;;;;;-145.76;100.00;65039.31;4922604;28;20134;-70
2022/01/19 08:39:31;;;;;;;100.55;45.33;;;;;;;-145.76;100.00;65039.31;4918283;28;20043;-72
2022/01/19 08:41:57;;;;;;;97.15;46.67;;;;;;;-145.76;100.00;65039.31;4915864;28;20062;-72
2022/01/19 08:44:22;;;;;;;95.15;44.28;;;;;;;-145.76;100.00;65039.31;4924180;28;20046;-71
2022/01/19 08:46:48;;;;;;;85.97;42.97;;;;;;;-145.76;100.00;65039.31;4909641;28;20086;-72
2022/01/19 08:49:14;;;;;;;95.25;46.72;;;;;;;-145.76;100.00;65039.31;4907167;28;21014;-71
2022/01/19 08:51:40;;;;;;;85.97;43.22;;;;;;;-145.76;100.00;65039.31;4916601;28;20109;-70
2022/01/19 08:54:05;;;;;;;93.68;43.92;;;;;;;-145.76;100.00;65039.31;4912320;28;20055;-73
2022/01/19 08:56:31;;;;;;;88.28;44.40;;;;;;;-145.76;100.00;65039.31;4922977;28;20182;-70
2022/01/19 08:58:57;;;;;;;93.05;43.95;;;;;;;-145.76;100.00;65039.31;4905065;28;20141;-73
2022/01/19 09:01:22;;;;;;;88.47;43.97;;;;;;;-145.76;100.00;65039.31;4920904;28;20157;-70
2022/01/19 09:03:48;;;;;;;83.53;42.65;;;;;;;-145.76;100.00;65039.31;4918115;28;20051;-71
2022/01/19 09:06:13;;;;;;;83.55;42.38;;;;;;;-145.76;100.00;65039.31;4910954;28;20181;-72
2022/01/19 09:08:39;;;;;;;87.18;43.78;;;;;;;-145.76;100.00;65039.31;4921257;28;20148;-70
2022/01/19 09:11:06;;;;;;;86.32;43.47;;;;;;;-145.76;100.00;65039.31;4909685;28;20050;-71
2022/01/19 09:13:32;;;;;;;87.53;43.40;;;;;;;-145.76;100.00;65039.31;4922165;28;20086;-72
2022/01/19 09:15:57;;;;;;;82.38;41.70;;;;;;;-145.76;100.00;65039.31;4917486;28;20694;-70
2022/01/19 09:18:22;;;;;;;81.68;42.38;;;;;;;-145.76;100.00;65039.31;4914730;28;20129;-71
2022/01/19 09:20:48;;;;;;;87.22;43.05;;;;;;;-145.76;100.00;65039.31;4922238;28;20049;-71
2022/01/19 09:23:13;;;;;;;89.68;44.53;;;;;;;-145.76;100.00;65039.31;4908989;28;20058;-70
2022/01/19 09:25:40;;;;;;;87.20;42.60;;;;;;;-145.76;100.00;65039.31;4921201;28;20043;-71
2022/01/19 09:28:07;;;;;;;79.03;40.53;;;;;;;-145.76;100.00;65039.31;4915574;28;20054;-71
2022/01/19 09:30:33;;;;;;;77.80;42.58;;;;;;;-145.76;100.00;65039.31;4911442;28;20038;-71
2022/01/19 09:33:10;;;;;;;82.78;43.50;;;;;;;-145.76;100.00;65039.31;4921477;28;20023;-71
2022/01/19 09:36:05;;;;;;;85.45;40.83;;;;;;;-145.76;100.00;65039.31;4908328;28;20072;-72
2022/01/19 09:38:36;;;;;;;74.82;38.92;;;;;;;-145.76;100.00;65039.31;4908807;28;20141;-71
2022/01/19 09:41:03;;;;;;;83.20;43.40;;;;;;;-145.76;100.00;65039.31;4907672;28;20054;-71
2022/01/19 09:43:29;;;;;;;82.40;39.83;;;;;;;-145.76;100.00;65039.31;4922526;28;20042;-71
2022/01/19 09:45:59;;;;;;;81.28;42.35;;;;;;;-145.76;100.00;65039.31;4919672;28;20063;-71
2022/01/19 09:48:25;;;;;;;78.07;40.15;;;;;;;-145.76;100.00;65039.31;4913683;28;20636;-71
2022/01/19 09:50:51;;;;;;;72.60;39.13;;;;;;;-145.76;100.00;65039.31;4924195;28;20495;-72
2022/01/19 09:53:17;;;;;;;72.35;39.63;;;;;;;-145.76;100.00;65039.31;4907528;28;20074;-71
2022/01/19 09:55:45;;;;;;;73.05;38.67;;;;;;;-145.76;100.00;65039.31;4922205;28;20049;-72
2022/01/19 09:58:11;;;;;;;67.80;38.17;;;;;;;-145.76;100.00;65039.31;4917019;28;20442;-71
2022/01/19 10:00:36;;;;;;;76.35;40.45;;;;;;;-145.76;100.00;65039.31;4914348;28;20058;-71
2022/01/19 10:03:19;;;;;;;71.70;39.88;;;;;;;-145.76;100.00;65039.31;4925788;28;20211;-71
2022/01/19 10:06:07;;;;;;;68.05;39.90;;;;;;;-145.76;100.00;65039.31;4910714;28;20077;-71
2022/01/19 10:08:40;;;;;;;68.32;38.65;;;;;;;-145.76;100.00;65039.31;4923426;28;20035;-72
2022/01/19 10:11:26;;;;;;;73.13;39.72;;;;;;;-145.76;100.00;65039.31;4908118;28;20054;-72
2022/01/19 10:17:03;;;;;;;75.18;38.85;;;;;;;-145.76;100.00;65039.31;4922315;28;20051;-72
2022/01/19 10:19:31;;;;;;;71.35;39.80;;;;;;;-145.76;100.00;65039.31;4927206;28;20051;-72
2022/01/19 10:22:09;;;;;;;75.43;42.78;;;;;;;-145.76;100.00;65039.31;4925568;28;20519;-72
2022/01/19 10:24:55;;;;;;;76.97;40.97;;;;;;;-145.76;100.00;65039.31;4912893;28;20186;-72
2022/01/19 10:27:40;;;;;;;77.70;40.55;;;;;;;-145.76;100.00;65039.31;4926398;28;20031;-72
2022/01/19 10:30:06;;;;;;;72.82;39.25;;;;;;;-145.76;100.00;65039.31;4907365;28;20061;-72
2022/01/19 10:32:37;;;;;;;75.35;41.08;;;;;;;-145.76;100.00;65039.31;4924591;28;20035;-72
2022/01/19 10:35:21;;;;;;;75.30;42.58;;;;;;;-145.76;100.00;65039.31;4908909;28;20050;-72
2022/01/19 10:38:09;;;;;;;74.80;40.80;;;;;;;-145.76;100.00;65039.31;4924663;28;20427;-72
2022/01/19 10:40:36;;;;;;;82.78;44.40;;;;;;;-145.76;100.00;65039.31;4919594;28;20078;-72
2022/01/19 10:43:27;;;;;;;74.53;41.15;;;;;;;-145.76;100.00;65039.31;4915110;28;20065;-72
2022/01/19 10:45:53;;;;;;;79.78;43.35;;;;;;;-145.76;100.00;65039.31;4925504;28;20038;-72
2022/01/19 10:48:38;;;;;;;80.63;42.03;;;;;;;-145.76;100.00;65039.31;4909012;28;21009;-72
2022/01/19 10:51:18;;;;;;;75.97;43.30;;;;;;;-145.76;100.00;65039.31;4909697;28;20038;-74
2022/01/19 10:53:46;;;;;;;81.72;42.30;;;;;;;-145.76;100.00;65039.31;4909824;28;20187;-74
2022/01/19 10:56:26;;;;;;;78.38;42.03;;;;;;;-145.76;100.00;65039.31;4924027;28;20512;-74
2022/01/19 10:58:57;;;;;;;77.40;41.35;;;;;;;-145.76;100.00;65039.31;4920527;28;20047;-74
2022/01/19 11:01:32;;;;;;;80.82;44.13;;;;;;;-145.76;100.00;65039.31;4928797;28;22907;-74
2022/01/19 11:04:21;;;;;;;83.22;45.35;;;;;;;-145.76;100.00;65039.31;4926484;28;20081;-74
2022/01/19 11:06:47;;;;;;;79.38;42.70;;;;;;;-145.76;100.00;65039.31;4917540;28;23740;-74
2022/01/19 11:09:14;;;;;;;83.80;44.05;;;;;;;-145.76;100.00;65039.31;4926395;28;20117;-74
2022/01/19 11:11:43;;;;;;;85.38;45.80;;;;;;;-145.76;100.00;65039.31;4910955;28;20059;-73
2022/01/19 11:14:08;;;;;;;75.50;44.60;;;;;;;-145.76;100.00;65039.31;4923624;28;20541;-73
2022/01/19 11:16:34;;;;;;;79.88;44.42;;;;;;;-145.76;100.00;65039.31;4917310;28;20133;-74
2022/01/19 11:18:59;;;;;;;86.78;47.65;;;;;;;-145.76;100.00;65039.31;4920786;28;20051;-73
2022/01/19 11:21:26;;;;;;;84.10;46.58;;;;;;;-145.76;100.00;65039.31;4928021;28;20050;-70
2022/01/19 11:24:07;;;;;;;78.65;45.90;;;;;;;-145.76;100.00;65039.31;4911575;28;20047;-72
2022/01/19 11:26:35;;;;;;;74.55;42.80;;;;;;;-145.76;100.00;65039.31;4927944;28;20039;-69
2022/01/19 11:29:18;;;;;;;81.63;47.15;;;;;;;-145.76;100.00;65039.31;4912213;28;20089;-71
2022/01/19 11:31:43;;;;;;;84.90;49.83;;;;;;;-145.76;100.00;65039.31;4927211;28;20045;-71
2022/01/19 11:34:09;;;;;;;91.78;47.78;;;;;;;-145.76;100.00;65039.31;4928589;28;20043;-72
2022/01/19 11:36:39;;;;;;;83.35;45.10;;;;;;;-145.76;100.00;65039.31;4914795;28;20057;-71
2022/01/19 11:39:20;;;;;;;92.10;49.92;;;;;;;-145.76;100.00;65039.31;4927024;28;20031;-72
2022/01/19 11:41:57;;;;;;;95.18;49.38;;;;;;;-145.76;100.00;65039.31;4911491;28;20066;-72
2022/01/19 11:44:29;;;;;;;91.82;48.50;;;;;;;-145.76;100.00;65039.31;4921128;28;20062;-72
2022/01/19 11:46:58;;;;;;;88.28;49.28;;;;;;;-145.76;100.00;65039.31;4916742;28;20121;-70
2022/01/19 11:49:51;;;;;;;90.55;52.25;;;;;;;-145.76;100.00;65039.31;4925551;28;20028;-70
2022/01/19 11:52:23;;;;;;;89.25;51.70;;;;;;;-145.76;100.00;65039.31;4924697;28;20050;-71
2022/01/19 11:54:49;;;;;;;94.90;50.63;;;;;;;-145.76;100.00;65039.31;4914879;28;20059;-72
2022/01/19 11:57:18;;;;;;;93.55;52.97;;;;;;;-145.76;100.00;65039.31;4926111;28;20126;-71
2022/01/19 11:59:43;;;;;;;91.50;51.22;;;;;;;-145.76;100.00;65039.31;4908200;28;20059;-72
2022/01/19 12:02:21;;;;;;;87.00;50.53;;;;;;;-145.76;100.00;65039.31;4926950;28;20077;-71
2022/01/19 12:04:54;;;;;;;97.03;52.42;;;;;;;-145.76;100.00;65039.31;4920450;28;20082;-72
2022/01/19 12:07:52;;;;;;;94.70;53.40;;;;;;;-145.76;100.00;65039.31;4913827;28;20141;-71
2022/01/19 12:10:20;;;;;;;81.93;48.05;;;;;;;-145.76;100.00;65039.31;4923417;28;20533;-74
2022/01/19 12:15:59;;;;;;;91.90;49.08;;;;;;;-145.76;100.00;65039.31;4925486;28;20596;-72
2022/01/19 12:18:40;;;;;;;93.13;52.88;;;;;;;-145.76;100.00;65039.31;4924900;28;20059;-71
2022/01/19 12:21:07;;;;;;;99.78;53.05;;;;;;;-145.76;100.00;65039.31;4926856;28;20031;-72
2022/01/19 12:23:34;;;;;;;92.07;53.35;;;;;;;-145.76;100.00;65039.31;4909216;28;20093;-70
2022/01/19 12:26:02;;;;;;;93.38;50.38;;;;;;;-145.76;100.00;65039.31;4925683;28;20038;-70
2022/01/19 12:28:40;;;;;;;99.50;52.80;;;;;;;-145.76;100.00;65039.31;4921895;28;21261;-70